sensor_id;sensor_type;location;lat;lon;timestamp;P1;durP1;ratioP1;P2;durP2;ratioP2
62832;SDS011;48891;49.220;6.920;2023-07-08T00:01:04;9.10;;;5.65;;
62832;SDS011;48891;49.220;6.920;2023-07-08T00:03:29;8.77;;;5.57;;
62832;SDS011;48891;49.220;6.920;2023-07-08T00:05:55;9.05;;;5.55;;
62832;SDS011;48891;49.220;6.920;2023-07-08T00:08:20;9.40;;;5.28;;
62832;SDS011;48891;49.220;6.920;2023-07-08T00:10:46;10.00;;;5.97;;
62832;SDS011;48891;49.220;6.920;2023-07-08T00:13:11;10.23;;;5.68;;
62832;SDS011;48891;49.220;6.920;2023-07-08T00:15:36;8.23;;;5.22;;
62832;SDS011;48891;49.220;6.920;2023-07-08T00:18:08;9.48;;;5.03;;
62832;SDS011;48891;49.220;6.920;2023-07-08T00:20:39;8.40;;;5.78;;
62832;SDS011;48891;49.220;6.920;2023-07-08T00:23:04;10.02;;;6.13;;
62832;SDS011;48891;49.220;6.920;2023-07-08T00:25:30;8.07;;;5.35;;
62832;SDS011;48891;49.220;6.920;2023-07-08T00:27:55;9.82;;;5.80;;
62832;SDS011;48891;49.220;6.920;2023-07-08T00:30:25;9.00;;;5.15;;
62832;SDS011;48891;49.220;6.920;2023-07-08T00:32:50;9.50;;;5.63;;
62832;SDS011;48891;49.220;6.920;2023-07-08T00:35:16;9.45;;;6.10;;
62832;SDS011;48891;49.220;6.920;2023-07-08T00:37:41;9.05;;;5.50;;
62832;SDS011;48891;49.220;6.920;2023-07-08T00:40:21;9.60;;;5.68;;
62832;SDS011;48891;49.220;6.920;2023-07-08T00:42:46;8.32;;;5.38;;
62832;SDS011;48891;49.220;6.920;2023-07-08T00:45:15;9.40;;;5.93;;
62832;SDS011;48891;49.220;6.920;2023-07-08T00:47:43;9.70;;;6.38;;
62832;SDS011;48891;49.220;6.920;2023-07-08T00:50:08;8.82;;;6.13;;
62832;SDS011;48891;49.220;6.920;2023-07-08T00:52:33;9.95;;;6.28;;
62832;SDS011;48891;49.220;6.920;2023-07-08T00:54:59;8.83;;;6.30;;
62832;SDS011;48891;49.220;6.920;2023-07-08T00:57:26;9.45;;;6.00;;
62832;SDS011;48891;49.220;6.920;2023-07-08T00:59:53;10.95;;;6.45;;
62832;SDS011;48891;49.220;6.920;2023-07-08T01:02:20;9.05;;;5.63;;
62832;SDS011;48891;49.220;6.920;2023-07-08T01:04:48;10.07;;;6.25;;
62832;SDS011;48891;49.220;6.920;2023-07-08T01:07:15;9.48;;;6.03;;
62832;SDS011;48891;49.220;6.920;2023-07-08T01:09:41;11.33;;;6.43;;
62832;SDS011;48891;49.220;6.920;2023-07-08T01:12:08;9.67;;;6.40;;
62832;SDS011;48891;49.220;6.920;2023-07-08T01:14:35;9.13;;;6.15;;
62832;SDS011;48891;49.220;6.920;2023-07-08T01:17:02;8.20;;;6.03;;
62832;SDS011;48891;49.220;6.920;2023-07-08T01:19:27;11.38;;;6.50;;
62832;SDS011;48891;49.220;6.920;2023-07-08T01:24:17;9.55;;;6.18;;
62832;SDS011;48891;49.220;6.920;2023-07-08T01:26:43;9.45;;;6.40;;
62832;SDS011;48891;49.220;6.920;2023-07-08T01:29:09;9.77;;;6.40;;
62832;SDS011;48891;49.220;6.920;2023-07-08T01:31:34;9.23;;;5.95;;
62832;SDS011;48891;49.220;6.920;2023-07-08T01:33:59;9.57;;;6.32;;
62832;SDS011;48891;49.220;6.920;2023-07-08T01:36:25;10.00;;;5.95;;
62832;SDS011;48891;49.220;6.920;2023-07-08T01:38:51;9.82;;;6.15;;
62832;SDS011;48891;49.220;6.920;2023-07-08T01:41:16;9.35;;;6.22;;
62832;SDS011;48891;49.220;6.920;2023-07-08T01:43:41;10.43;;;6.50;;
62832;SDS011;48891;49.220;6.920;2023-07-08T01:46:10;9.93;;;6.07;;
62832;SDS011;48891;49.220;6.920;2023-07-08T01:48:36;9.95;;;6.63;;
62832;SDS011;48891;49.220;6.920;2023-07-08T01:51:03;9.70;;;6.07;;
62832;SDS011;48891;49.220;6.920;2023-07-08T01:53:33;11.75;;;6.60;;
62832;SDS011;48891;49.220;6.920;2023-07-08T01:55:58;10.02;;;6.78;;
62832;SDS011;48891;49.220;6.920;2023-07-08T01:58:24;10.07;;;6.45;;
62832;SDS011;48891;49.220;6.920;2023-07-08T02:00:49;10.20;;;6.60;;
62832;SDS011;48891;49.220;6.920;2023-07-08T02:03:15;11.52;;;6.38;;
62832;SDS011;48891;49.220;6.920;2023-07-08T02:05:40;9.88;;;6.30;;
62832;SDS011;48891;49.220;6.920;2023-07-08T02:08:05;8.75;;;6.05;;
62832;SDS011;48891;49.220;6.920;2023-07-08T02:10:30;10.90;;;6.67;;
62832;SDS011;48891;49.220;6.920;2023-07-08T02:12:55;10.05;;;7.00;;
62832;SDS011;48891;49.220;6.920;2023-07-08T02:15:20;10.43;;;6.43;;
62832;SDS011;48891;49.220;6.920;2023-07-08T02:17:45;10.32;;;6.63;;
62832;SDS011;48891;49.220;6.920;2023-07-08T02:20:11;9.98;;;6.00;;
62832;SDS011;48891;49.220;6.920;2023-07-08T02:22:36;11.05;;;6.57;;
62832;SDS011;48891;49.220;6.920;2023-07-08T02:25:01;10.55;;;6.70;;
62832;SDS011;48891;49.220;6.920;2023-07-08T02:27:26;13.48;;;7.25;;
62832;SDS011;48891;49.220;6.920;2023-07-08T02:29:51;9.63;;;6.25;;
62832;SDS011;48891;49.220;6.920;2023-07-08T02:32:16;11.55;;;7.15;;
62832;SDS011;48891;49.220;6.920;2023-07-08T02:34:41;11.00;;;6.90;;
62832;SDS011;48891;49.220;6.920;2023-07-08T02:37:07;9.93;;;6.82;;
62832;SDS011;48891;49.220;6.920;2023-07-08T02:39:32;10.98;;;7.00;;
62832;SDS011;48891;49.220;6.920;2023-07-08T02:41:57;10.48;;;6.63;;
62832;SDS011;48891;49.220;6.920;2023-07-08T02:44:22;12.30;;;7.90;;
62832;SDS011;48891;49.220;6.920;2023-07-08T02:46:47;9.67;;;6.73;;
62832;SDS011;48891;49.220;6.920;2023-07-08T02:49:12;10.50;;;6.97;;
62832;SDS011;48891;49.220;6.920;2023-07-08T02:51:37;10.35;;;6.90;;
62832;SDS011;48891;49.220;6.920;2023-07-08T02:54:03;11.40;;;7.05;;
62832;SDS011;48891;49.220;6.920;2023-07-08T02:56:28;10.60;;;7.45;;
62832;SDS011;48891;49.220;6.920;2023-07-08T02:58:53;10.85;;;7.63;;
62832;SDS011;48891;49.220;6.920;2023-07-08T03:01:18;12.07;;;7.30;;
62832;SDS011;48891;49.220;6.920;2023-07-08T03:03:44;11.40;;;7.30;;
62832;SDS011;48891;49.220;6.920;2023-07-08T03:06:09;11.65;;;7.40;;
62832;SDS011;48891;49.220;6.920;2023-07-08T03:08:34;10.65;;;7.20;;
62832;SDS011;48891;49.220;6.920;2023-07-08T03:11:00;10.70;;;6.87;;
62832;SDS011;48891;49.220;6.920;2023-07-08T03:13:26;10.57;;;6.97;;
62832;SDS011;48891;49.220;6.920;2023-07-08T03:15:51;11.82;;;7.53;;
62832;SDS011;48891;49.220;6.920;2023-07-08T03:18:16;11.02;;;7.13;;
62832;SDS011;48891;49.220;6.920;2023-07-08T03:20:42;12.67;;;7.83;;
62832;SDS011;48891;49.220;6.920;2023-07-08T03:23:07;12.52;;;7.07;;
62832;SDS011;48891;49.220;6.920;2023-07-08T03:25:32;11.82;;;7.60;;
62832;SDS011;48891;49.220;6.920;2023-07-08T03:27:57;12.75;;;7.65;;
62832;SDS011;48891;49.220;6.920;2023-07-08T03:30:22;12.45;;;6.88;;
62832;SDS011;48891;49.220;6.920;2023-07-08T03:32:47;10.93;;;7.53;;
62832;SDS011;48891;49.220;6.920;2023-07-08T03:35:12;11.20;;;7.45;;
62832;SDS011;48891;49.220;6.920;2023-07-08T03:37:37;12.53;;;7.97;;
62832;SDS011;48891;49.220;6.920;2023-07-08T03:40:03;10.73;;;6.95;;
62832;SDS011;48891;49.220;6.920;2023-07-08T03:42:28;10.98;;;7.65;;
62832;SDS011;48891;49.220;6.920;2023-07-08T03:44:53;11.60;;;8.00;;
62832;SDS011;48891;49.220;6.920;2023-07-08T03:47:18;10.75;;;7.63;;
62832;SDS011;48891;49.220;6.920;2023-07-08T03:49:43;11.15;;;7.30;;
62832;SDS011;48891;49.220;6.920;2023-07-08T03:52:10;13.90;;;8.10;;
62832;SDS011;48891;49.220;6.920;2023-07-08T03:54:37;10.52;;;6.90;;
62832;SDS011;48891;49.220;6.920;2023-07-08T03:57:04;10.98;;;7.05;;
62832;SDS011;48891;49.220;6.920;2023-07-08T03:59:29;12.38;;;7.50;;
62832;SDS011;48891;49.220;6.920;2023-07-08T04:01:54;11.80;;;7.78;;
62832;SDS011;48891;49.220;6.920;2023-07-08T04:04:19;11.98;;;7.80;;
62832;SDS011;48891;49.220;6.920;2023-07-08T04:06:44;12.02;;;7.15;;
62832;SDS011;48891;49.220;6.920;2023-07-08T04:09:09;12.83;;;7.77;;
62832;SDS011;48891;49.220;6.920;2023-07-08T04:11:34;11.05;;;7.22;;
62832;SDS011;48891;49.220;6.920;2023-07-08T04:13:59;12.23;;;7.70;;
62832;SDS011;48891;49.220;6.920;2023-07-08T04:16:25;11.40;;;7.63;;
62832;SDS011;48891;49.220;6.920;2023-07-08T04:18:51;12.00;;;7.30;;
62832;SDS011;48891;49.220;6.920;2023-07-08T04:21:17;10.07;;;7.70;;
62832;SDS011;48891;49.220;6.920;2023-07-08T04:23:42;11.60;;;7.72;;
62832;SDS011;48891;49.220;6.920;2023-07-08T04:26:08;13.18;;;7.82;;
62832;SDS011;48891;49.220;6.920;2023-07-08T04:28:33;10.75;;;7.70;;
62832;SDS011;48891;49.220;6.920;2023-07-08T04:30:58;11.45;;;7.32;;
62832;SDS011;48891;49.220;6.920;2023-07-08T04:33:23;12.15;;;7.72;;
62832;SDS011;48891;49.220;6.920;2023-07-08T04:35:48;12.23;;;6.70;;
62832;SDS011;48891;49.220;6.920;2023-07-08T04:38:16;11.63;;;7.33;;
62832;SDS011;48891;49.220;6.920;2023-07-08T04:40:41;11.30;;;7.63;;
62832;SDS011;48891;49.220;6.920;2023-07-08T04:43:07;11.95;;;7.32;;
62832;SDS011;48891;49.220;6.920;2023-07-08T04:45:32;11.82;;;7.55;;
62832;SDS011;48891;49.220;6.920;2023-07-08T04:47:57;14.02;;;8.25;;
62832;SDS011;48891;49.220;6.920;2023-07-08T04:50:22;10.63;;;7.37;;
62832;SDS011;48891;49.220;6.920;2023-07-08T04:52:47;10.05;;;7.18;;
62832;SDS011;48891;49.220;6.920;2023-07-08T04:55:13;13.52;;;7.40;;
62832;SDS011;48891;49.220;6.920;2023-07-08T04:57:38;12.38;;;7.57;;
62832;SDS011;48891;49.220;6.920;2023-07-08T05:00:04;11.68;;;6.93;;
62832;SDS011;48891;49.220;6.920;2023-07-08T05:02:30;10.55;;;6.80;;
62832;SDS011;48891;49.220;6.920;2023-07-08T05:04:55;11.27;;;7.78;;
62832;SDS011;48891;49.220;6.920;2023-07-08T05:07:20;11.50;;;7.32;;
62832;SDS011;48891;49.220;6.920;2023-07-08T05:09:45;11.27;;;7.85;;
62832;SDS011;48891;49.220;6.920;2023-07-08T05:12:10;10.25;;;6.88;;
62832;SDS011;48891;49.220;6.920;2023-07-08T05:14:35;11.95;;;7.18;;
62832;SDS011;48891;49.220;6.920;2023-07-08T05:17:00;11.55;;;7.57;;
62832;SDS011;48891;49.220;6.920;2023-07-08T05:19:25;12.73;;;8.02;;
62832;SDS011;48891;49.220;6.920;2023-07-08T05:21:50;13.10;;;7.88;;
62832;SDS011;48891;49.220;6.920;2023-07-08T05:24:15;12.88;;;7.80;;
62832;SDS011;48891;49.220;6.920;2023-07-08T05:26:41;11.15;;;7.05;;
62832;SDS011;48891;49.220;6.920;2023-07-08T05:29:06;12.75;;;7.55;;
62832;SDS011;48891;49.220;6.920;2023-07-08T05:31:31;12.00;;;7.50;;
62832;SDS011;48891;49.220;6.920;2023-07-08T05:33:56;12.60;;;7.65;;
62832;SDS011;48891;49.220;6.920;2023-07-08T05:36:21;10.98;;;7.05;;
62832;SDS011;48891;49.220;6.920;2023-07-08T05:38:46;12.57;;;7.50;;
62832;SDS011;48891;49.220;6.920;2023-07-08T05:41:11;12.68;;;7.82;;
62832;SDS011;48891;49.220;6.920;2023-07-08T05:43:36;11.35;;;6.88;;
62832;SDS011;48891;49.220;6.920;2023-07-08T05:46:02;10.70;;;7.22;;
62832;SDS011;48891;49.220;6.920;2023-07-08T05:48:27;10.85;;;7.15;;
62832;SDS011;48891;49.220;6.920;2023-07-08T05:50:52;11.02;;;7.35;;
62832;SDS011;48891;49.220;6.920;2023-07-08T05:53:18;12.38;;;7.45;;
62832;SDS011;48891;49.220;6.920;2023-07-08T05:55:43;13.18;;;7.72;;
62832;SDS011;48891;49.220;6.920;2023-07-08T05:58:08;11.15;;;7.07;;
62832;SDS011;48891;49.220;6.920;2023-07-08T06:00:33;10.23;;;6.78;;
62832;SDS011;48891;49.220;6.920;2023-07-08T06:02:58;10.65;;;6.68;;
62832;SDS011;48891;49.220;6.920;2023-07-08T06:05:24;12.80;;;7.43;;
62832;SDS011;48891;49.220;6.920;2023-07-08T06:07:49;10.98;;;7.00;;
62832;SDS011;48891;49.220;6.920;2023-07-08T06:10:14;11.52;;;7.85;;
62832;SDS011;48891;49.220;6.920;2023-07-08T06:12:39;9.80;;;6.97;;
62832;SDS011;48891;49.220;6.920;2023-07-08T06:15:04;10.57;;;7.07;;
62832;SDS011;48891;49.220;6.920;2023-07-08T06:17:29;10.85;;;7.13;;
62832;SDS011;48891;49.220;6.920;2023-07-08T06:19:55;11.63;;;6.65;;
62832;SDS011;48891;49.220;6.920;2023-07-08T06:22:20;10.25;;;7.18;;
62832;SDS011;48891;49.220;6.920;2023-07-08T06:24:45;11.93;;;7.47;;
62832;SDS011;48891;49.220;6.920;2023-07-08T06:27:10;10.23;;;7.00;;
62832;SDS011;48891;49.220;6.920;2023-07-08T06:29:35;11.52;;;6.57;;
62832;SDS011;48891;49.220;6.920;2023-07-08T06:32:00;10.30;;;6.87;;
62832;SDS011;48891;49.220;6.920;2023-07-08T06:34:26;10.77;;;7.13;;
62832;SDS011;48891;49.220;6.920;2023-07-08T06:36:51;11.32;;;7.05;;
62832;SDS011;48891;49.220;6.920;2023-07-08T06:39:16;10.25;;;6.68;;
62832;SDS011;48891;49.220;6.920;2023-07-08T06:41:42;11.02;;;6.60;;
62832;SDS011;48891;49.220;6.920;2023-07-08T06:44:07;9.00;;;5.88;;
62832;SDS011;48891;49.220;6.920;2023-07-08T06:46:33;11.10;;;6.97;;
62832;SDS011;48891;49.220;6.920;2023-07-08T06:48:58;10.05;;;6.60;;
62832;SDS011;48891;49.220;6.920;2023-07-08T06:51:23;10.43;;;6.90;;
62832;SDS011;48891;49.220;6.920;2023-07-08T06:53:48;10.35;;;6.80;;
62832;SDS011;48891;49.220;6.920;2023-07-08T06:56:14;9.77;;;6.47;;
62832;SDS011;48891;49.220;6.920;2023-07-08T06:58:39;11.45;;;6.82;;
62832;SDS011;48891;49.220;6.920;2023-07-08T07:01:04;11.70;;;6.53;;
62832;SDS011;48891;49.220;6.920;2023-07-08T07:03:29;10.73;;;6.13;;
62832;SDS011;48891;49.220;6.920;2023-07-08T07:05:54;8.88;;;5.47;;
62832;SDS011;48891;49.220;6.920;2023-07-08T07:08:19;9.90;;;5.90;;
62832;SDS011;48891;49.220;6.920;2023-07-08T07:10:44;8.70;;;5.53;;
62832;SDS011;48891;49.220;6.920;2023-07-08T07:13:10;10.05;;;5.82;;
62832;SDS011;48891;49.220;6.920;2023-07-08T07:15:35;9.55;;;5.88;;
62832;SDS011;48891;49.220;6.920;2023-07-08T07:18:00;9.88;;;5.97;;
62832;SDS011;48891;49.220;6.920;2023-07-08T07:20:25;9.60;;;5.82;;
62832;SDS011;48891;49.220;6.920;2023-07-08T07:22:50;8.32;;;5.82;;
62832;SDS011;48891;49.220;6.920;2023-07-08T07:25:16;9.98;;;6.53;;
62832;SDS011;48891;49.220;6.920;2023-07-08T07:27:41;8.80;;;6.07;;
62832;SDS011;48891;49.220;6.920;2023-07-08T07:30:06;8.88;;;5.63;;
62832;SDS011;48891;49.220;6.920;2023-07-08T07:32:31;10.70;;;6.10;;
62832;SDS011;48891;49.220;6.920;2023-07-08T07:34:57;10.25;;;6.18;;
62832;SDS011;48891;49.220;6.920;2023-07-08T07:37:22;8.02;;;5.80;;
62832;SDS011;48891;49.220;6.920;2023-07-08T07:39:47;8.88;;;5.55;;
62832;SDS011;48891;49.220;6.920;2023-07-08T07:42:13;9.93;;;5.85;;
62832;SDS011;48891;49.220;6.920;2023-07-08T07:44:39;8.27;;;5.78;;
62832;SDS011;48891;49.220;6.920;2023-07-08T07:47:04;9.17;;;5.70;;
62832;SDS011;48891;49.220;6.920;2023-07-08T07:49:29;7.85;;;5.22;;
62832;SDS011;48891;49.220;6.920;2023-07-08T07:51:54;9.82;;;6.32;;
62832;SDS011;48891;49.220;6.920;2023-07-08T07:54:19;8.32;;;4.97;;
62832;SDS011;48891;49.220;6.920;2023-07-08T07:56:44;8.65;;;5.00;;
62832;SDS011;48891;49.220;6.920;2023-07-08T07:59:10;8.30;;;5.25;;
62832;SDS011;48891;49.220;6.920;2023-07-08T08:01:35;7.97;;;4.95;;
62832;SDS011;48891;49.220;6.920;2023-07-08T08:04:00;8.48;;;5.05;;
62832;SDS011;48891;49.220;6.920;2023-07-08T08:06:25;8.38;;;5.05;;
62832;SDS011;48891;49.220;6.920;2023-07-08T08:08:51;7.20;;;4.70;;
62832;SDS011;48891;49.220;6.920;2023-07-08T08:11:16;7.35;;;5.05;;
62832;SDS011;48891;49.220;6.920;2023-07-08T08:13:41;8.20;;;5.07;;
62832;SDS011;48891;49.220;6.920;2023-07-08T08:16:06;6.82;;;4.63;;
62832;SDS011;48891;49.220;6.920;2023-07-08T08:18:32;7.65;;;4.90;;
62832;SDS011;48891;49.220;6.920;2023-07-08T08:20:57;8.27;;;4.85;;
62832;SDS011;48891;49.220;6.920;2023-07-08T08:23:22;7.13;;;4.60;;
62832;SDS011;48891;49.220;6.920;2023-07-08T08:25:47;7.85;;;4.35;;
62832;SDS011;48891;49.220;6.920;2023-07-08T08:28:12;6.77;;;4.53;;
62832;SDS011;48891;49.220;6.920;2023-07-08T08:30:37;8.95;;;5.00;;
62832;SDS011;48891;49.220;6.920;2023-07-08T08:33:02;7.70;;;4.63;;
62832;SDS011;48891;49.220;6.920;2023-07-08T08:35:28;7.27;;;4.50;;
62832;SDS011;48891;49.220;6.920;2023-07-08T08:37:53;6.57;;;4.30;;
62832;SDS011;48891;49.220;6.920;2023-07-08T08:40:18;6.50;;;4.43;;
62832;SDS011;48891;49.220;6.920;2023-07-08T08:42:44;9.38;;;5.05;;
62832;SDS011;48891;49.220;6.920;2023-07-08T08:45:11;6.82;;;4.35;;
62832;SDS011;48891;49.220;6.920;2023-07-08T08:47:42;7.80;;;4.80;;
62832;SDS011;48891;49.220;6.920;2023-07-08T08:52:44;7.35;;;4.63;;
62832;SDS011;48891;49.220;6.920;2023-07-08T08:55:13;5.80;;;4.45;;
62832;SDS011;48891;49.220;6.920;2023-07-08T08:57:57;7.53;;;4.65;;
62832;SDS011;48891;49.220;6.920;2023-07-08T09:03:08;7.43;;;4.50;;
62832;SDS011;48891;49.220;6.920;2023-07-08T09:05:34;8.30;;;4.50;;
62832;SDS011;48891;49.220;6.920;2023-07-08T09:10:39;6.78;;;4.35;;
62832;SDS011;48891;49.220;6.920;2023-07-08T09:13:07;8.50;;;4.30;;
62832;SDS011;48891;49.220;6.920;2023-07-08T09:15:36;6.75;;;4.28;;
62832;SDS011;48891;49.220;6.920;2023-07-08T09:18:05;6.45;;;4.50;;
62832;SDS011;48891;49.220;6.920;2023-07-08T09:20:35;9.25;;;5.07;;
62832;SDS011;48891;49.220;6.920;2023-07-08T09:23:07;6.60;;;4.50;;
62832;SDS011;48891;49.220;6.920;2023-07-08T09:26:21;6.32;;;4.20;;
62832;SDS011;48891;49.220;6.920;2023-07-08T09:28:20;7.90;;;4.53;;
62832;SDS011;48891;49.220;6.920;2023-07-08T09:30:46;7.00;;;4.55;;
62832;SDS011;48891;49.220;6.920;2023-07-08T09:33:12;7.80;;;4.45;;
62832;SDS011;48891;49.220;6.920;2023-07-08T09:35:38;5.82;;;3.95;;
62832;SDS011;48891;49.220;6.920;2023-07-08T09:38:15;6.35;;;4.47;;
62832;SDS011;48891;49.220;6.920;2023-07-08T09:40:42;7.50;;;4.35;;
62832;SDS011;48891;49.220;6.920;2023-07-08T09:45:40;7.68;;;4.53;;
62832;SDS011;48891;49.220;6.920;2023-07-08T09:48:13;7.45;;;4.75;;
62832;SDS011;48891;49.220;6.920;2023-07-08T09:50:39;7.25;;;4.40;;
62832;SDS011;48891;49.220;6.920;2023-07-08T09:53:11;9.13;;;4.88;;
62832;SDS011;48891;49.220;6.920;2023-07-08T09:55:37;7.28;;;4.45;;
62832;SDS011;48891;49.220;6.920;2023-07-08T09:58:03;6.80;;;4.55;;
62832;SDS011;48891;49.220;6.920;2023-07-08T10:00:28;6.10;;;4.40;;
62832;SDS011;48891;49.220;6.920;2023-07-08T10:02:55;9.02;;;4.53;;
62832;SDS011;48891;49.220;6.920;2023-07-08T10:05:28;8.70;;;4.38;;
62832;SDS011;48891;49.220;6.920;2023-07-08T10:07:55;7.65;;;4.43;;
62832;SDS011;48891;49.220;6.920;2023-07-08T10:16:12;7.10;;;4.30;;
62832;SDS011;48891;49.220;6.920;2023-07-08T10:18:38;7.22;;;4.32;;
62832;SDS011;48891;49.220;6.920;2023-07-08T10:26:11;6.70;;;4.00;;
62832;SDS011;48891;49.220;6.920;2023-07-08T10:36:33;6.68;;;4.50;;
62832;SDS011;48891;49.220;6.920;2023-07-08T10:39:15;8.38;;;4.30;;
62832;SDS011;48891;49.220;6.920;2023-07-08T10:44:19;7.85;;;4.68;;
62832;SDS011;48891;49.220;6.920;2023-07-08T10:46:57;7.00;;;4.47;;
62832;SDS011;48891;49.220;6.920;2023-07-08T10:49:34;7.77;;;4.33;;
62832;SDS011;48891;49.220;6.920;2023-07-08T10:52:11;6.65;;;4.32;;
62832;SDS011;48891;49.220;6.920;2023-07-08T10:54:43;6.28;;;4.07;;
62832;SDS011;48891;49.220;6.920;2023-07-08T11:04:49;6.55;;;4.32;;
62832;SDS011;48891;49.220;6.920;2023-07-08T11:07:19;5.95;;;3.83;;
62832;SDS011;48891;49.220;6.920;2023-07-08T11:12:29;8.50;;;4.13;;
62832;SDS011;48891;49.220;6.920;2023-07-08T11:15:01;6.28;;;4.20;;
62832;SDS011;48891;49.220;6.920;2023-07-08T11:17:29;7.90;;;4.10;;
62832;SDS011;48891;49.220;6.920;2023-07-08T11:20:10;7.22;;;4.28;;
62832;SDS011;48891;49.220;6.920;2023-07-08T11:22:39;6.13;;;3.97;;
62832;SDS011;48891;49.220;6.920;2023-07-08T11:25:08;7.40;;;3.80;;
62832;SDS011;48891;49.220;6.920;2023-07-08T11:27:41;5.68;;;3.58;;
62832;SDS011;48891;49.220;6.920;2023-07-08T11:35:01;6.40;;;3.53;;
62832;SDS011;48891;49.220;6.920;2023-07-08T11:37:26;7.45;;;4.50;;
62832;SDS011;48891;49.220;6.920;2023-07-08T11:39:53;6.07;;;4.00;;
62832;SDS011;48891;49.220;6.920;2023-07-08T11:45:05;8.35;;;4.07;;
62832;SDS011;48891;49.220;6.920;2023-07-08T11:47:34;7.82;;;4.28;;
62832;SDS011;48891;49.220;6.920;2023-07-08T11:50:02;6.75;;;4.03;;
62832;SDS011;48891;49.220;6.920;2023-07-08T11:52:27;8.82;;;4.35;;
62832;SDS011;48891;49.220;6.920;2023-07-08T11:54:55;6.85;;;4.13;;
62832;SDS011;48891;49.220;6.920;2023-07-08T11:57:28;5.85;;;3.70;;
62832;SDS011;48891;49.220;6.920;2023-07-08T12:00:06;6.07;;;3.78;;
62832;SDS011;48891;49.220;6.920;2023-07-08T12:02:31;6.07;;;3.90;;
62832;SDS011;48891;49.220;6.920;2023-07-08T12:05:12;6.05;;;3.83;;
62832;SDS011;48891;49.220;6.920;2023-07-08T12:07:40;7.28;;;3.88;;
62832;SDS011;48891;49.220;6.920;2023-07-08T12:12:32;5.60;;;3.90;;
62832;SDS011;48891;49.220;6.920;2023-07-08T12:15:44;7.43;;;4.13;;
62832;SDS011;48891;49.220;6.920;2023-07-08T12:17:44;9.70;;;4.32;;
62832;SDS011;48891;49.220;6.920;2023-07-08T12:20:16;5.82;;;3.72;;
62832;SDS011;48891;49.220;6.920;2023-07-08T12:22:41;5.65;;;3.80;;
62832;SDS011;48891;49.220;6.920;2023-07-08T12:25:17;6.43;;;4.10;;
62832;SDS011;48891;49.220;6.920;2023-07-08T12:27:42;6.57;;;3.60;;
62832;SDS011;48891;49.220;6.920;2023-07-08T12:30:09;8.43;;;4.25;;
62832;SDS011;48891;49.220;6.920;2023-07-08T12:32:34;6.28;;;3.90;;
62832;SDS011;48891;49.220;6.920;2023-07-08T12:35:00;6.97;;;3.85;;
62832;SDS011;48891;49.220;6.920;2023-07-08T12:37:25;5.60;;;3.87;;
62832;SDS011;48891;49.220;6.920;2023-07-08T12:39:54;6.37;;;3.57;;
62832;SDS011;48891;49.220;6.920;2023-07-08T12:42:19;6.13;;;3.78;;
62832;SDS011;48891;49.220;6.920;2023-07-08T12:44:45;5.25;;;3.60;;
62832;SDS011;48891;49.220;6.920;2023-07-08T12:47:11;6.82;;;3.78;;
62832;SDS011;48891;49.220;6.920;2023-07-08T12:49:36;5.78;;;3.63;;
62832;SDS011;48891;49.220;6.920;2023-07-08T12:52:01;7.57;;;3.75;;
62832;SDS011;48891;49.220;6.920;2023-07-08T12:54:27;5.00;;;3.70;;
62832;SDS011;48891;49.220;6.920;2023-07-08T12:56:53;5.55;;;3.42;;
62832;SDS011;48891;49.220;6.920;2023-07-08T12:59:19;6.20;;;3.90;;
62832;SDS011;48891;49.220;6.920;2023-07-08T13:01:46;6.63;;;3.50;;
62832;SDS011;48891;49.220;6.920;2023-07-08T13:04:12;6.68;;;3.72;;
62832;SDS011;48891;49.220;6.920;2023-07-08T13:06:37;6.53;;;3.90;;
62832;SDS011;48891;49.220;6.920;2023-07-08T13:09:16;6.38;;;4.13;;
62832;SDS011;48891;49.220;6.920;2023-07-08T13:11:43;8.20;;;4.75;;
62832;SDS011;48891;49.220;6.920;2023-07-08T13:14:09;9.10;;;4.55;;
62832;SDS011;48891;49.220;6.920;2023-07-08T13:16:34;8.40;;;4.70;;
62832;SDS011;48891;49.220;6.920;2023-07-08T13:19:00;9.02;;;4.72;;
62832;SDS011;48891;49.220;6.920;2023-07-08T13:21:25;9.60;;;4.65;;
62832;SDS011;48891;49.220;6.920;2023-07-08T13:23:51;9.95;;;4.90;;
62832;SDS011;48891;49.220;6.920;2023-07-08T13:26:17;13.07;;;5.25;;
62832;SDS011;48891;49.220;6.920;2023-07-08T13:28:43;12.43;;;6.05;;
62832;SDS011;48891;49.220;6.920;2023-07-08T13:31:15;8.75;;;5.30;;
62832;SDS011;48891;49.220;6.920;2023-07-08T13:33:45;9.07;;;5.47;;
62832;SDS011;48891;49.220;6.920;2023-07-08T13:36:11;10.48;;;6.03;;
62832;SDS011;48891;49.220;6.920;2023-07-08T13:38:37;11.07;;;5.85;;
62832;SDS011;48891;49.220;6.920;2023-07-08T13:41:03;12.60;;;5.78;;
62832;SDS011;48891;49.220;6.920;2023-07-08T13:43:31;11.38;;;5.68;;
62832;SDS011;48891;49.220;6.920;2023-07-08T13:45:57;12.88;;;5.38;;
62832;SDS011;48891;49.220;6.920;2023-07-08T13:48:24;11.75;;;5.93;;
62832;SDS011;48891;49.220;6.920;2023-07-08T13:50:53;11.02;;;5.85;;
62832;SDS011;48891;49.220;6.920;2023-07-08T13:53:22;8.95;;;5.28;;
62832;SDS011;48891;49.220;6.920;2023-07-08T13:55:48;11.35;;;6.38;;
62832;SDS011;48891;49.220;6.920;2023-07-08T13:58:15;11.45;;;5.78;;
62832;SDS011;48891;49.220;6.920;2023-07-08T14:00:40;10.13;;;5.47;;
62832;SDS011;48891;49.220;6.920;2023-07-08T14:03:09;10.60;;;5.83;;
62832;SDS011;48891;49.220;6.920;2023-07-08T14:05:36;10.57;;;6.50;;
62832;SDS011;48891;49.220;6.920;2023-07-08T14:08:01;11.30;;;5.65;;
62832;SDS011;48891;49.220;6.920;2023-07-08T14:10:26;8.88;;;5.20;;
62832;SDS011;48891;49.220;6.920;2023-07-08T14:12:51;9.13;;;5.20;;
62832;SDS011;48891;49.220;6.920;2023-07-08T14:15:16;9.20;;;5.20;;
62832;SDS011;48891;49.220;6.920;2023-07-08T14:17:42;10.57;;;5.80;;
62832;SDS011;48891;49.220;6.920;2023-07-08T14:20:08;9.20;;;4.68;;
62832;SDS011;48891;49.220;6.920;2023-07-08T14:22:35;10.18;;;5.28;;
62832;SDS011;48891;49.220;6.920;2023-07-08T14:25:01;8.35;;;4.85;;
62832;SDS011;48891;49.220;6.920;2023-07-08T14:27:29;10.48;;;5.10;;
62832;SDS011;48891;49.220;6.920;2023-07-08T14:29:54;7.97;;;4.93;;
62832;SDS011;48891;49.220;6.920;2023-07-08T14:32:23;7.88;;;5.07;;
62832;SDS011;48891;49.220;6.920;2023-07-08T14:34:55;9.57;;;4.78;;
62832;SDS011;48891;49.220;6.920;2023-07-08T14:37:21;9.65;;;4.70;;
62832;SDS011;48891;49.220;6.920;2023-07-08T14:39:47;9.40;;;4.95;;
62832;SDS011;48891;49.220;6.920;2023-07-08T14:42:13;7.30;;;4.57;;
62832;SDS011;48891;49.220;6.920;2023-07-08T14:44:39;8.70;;;5.15;;
62832;SDS011;48891;49.220;6.920;2023-07-08T14:47:08;7.70;;;4.82;;
62832;SDS011;48891;49.220;6.920;2023-07-08T14:49:34;7.93;;;4.53;;
62832;SDS011;48891;49.220;6.920;2023-07-08T14:51:59;7.87;;;4.67;;
62832;SDS011;48891;49.220;6.920;2023-07-08T14:54:24;6.88;;;4.63;;
62832;SDS011;48891;49.220;6.920;2023-07-08T14:56:52;9.82;;;4.40;;
62832;SDS011;48891;49.220;6.920;2023-07-08T14:59:20;7.93;;;4.30;;
62832;SDS011;48891;49.220;6.920;2023-07-08T15:01:46;7.57;;;4.13;;
62832;SDS011;48891;49.220;6.920;2023-07-08T15:04:11;6.93;;;4.20;;
62832;SDS011;48891;49.220;6.920;2023-07-08T15:06:37;8.70;;;4.70;;
62832;SDS011;48891;49.220;6.920;2023-07-08T15:09:02;7.65;;;4.10;;
62832;SDS011;48891;49.220;6.920;2023-07-08T15:11:27;11.00;;;4.70;;
62832;SDS011;48891;49.220;6.920;2023-07-08T15:13:52;8.40;;;4.78;;
62832;SDS011;48891;49.220;6.920;2023-07-08T15:16:18;8.00;;;4.10;;
62832;SDS011;48891;49.220;6.920;2023-07-08T15:18:44;8.27;;;4.40;;
62832;SDS011;48891;49.220;6.920;2023-07-08T15:21:09;7.93;;;4.18;;
62832;SDS011;48891;49.220;6.920;2023-07-08T15:23:35;9.25;;;4.20;;
62832;SDS011;48891;49.220;6.920;2023-07-08T15:26:00;6.80;;;4.25;;
62832;SDS011;48891;49.220;6.920;2023-07-08T15:28:37;6.63;;;3.97;;
62832;SDS011;48891;49.220;6.920;2023-07-08T15:31:03;8.75;;;4.25;;
62832;SDS011;48891;49.220;6.920;2023-07-08T15:33:28;7.35;;;4.00;;